createdAt,value
2023-03-17T00:01:06.808Z,35.04
2023-03-17T00:03:37.198Z,36.91
2023-03-17T00:06:05.905Z,37.24
2023-03-17T00:08:34.020Z,36.77
2023-03-17T00:11:01.764Z,36.78
2023-03-17T00:13:30.514Z,36.56
2023-03-17T00:16:01.065Z,36.78
2023-03-17T00:18:30.409Z,35.74
2023-03-17T00:20:59.868Z,37.82
2023-03-17T00:23:27.606Z,37.24
2023-03-17T00:25:55.207Z,36.99
2023-03-17T00:28:23.331Z,38.09
2023-03-17T00:30:51.607Z,37.25
2023-03-17T00:33:21.102Z,37.56
2023-03-17T00:35:49.801Z,36.91
2023-03-17T00:38:19.001Z,37.74
2023-03-17T00:43:13.659Z,36.77
2023-03-17T00:45:41.875Z,36.90
2023-03-17T00:48:11.717Z,37.80
2023-03-17T00:50:39.341Z,37.46
2023-03-17T00:53:07.354Z,36.76
2023-03-17T00:55:36.371Z,36.42
2023-03-17T00:58:04.418Z,37.78
2023-03-17T01:00:32.738Z,38.09
2023-03-17T01:03:00.571Z,38.28
2023-03-17T01:05:28.535Z,38.05
2023-03-17T01:07:57.743Z,38.31
2023-03-17T01:10:26.137Z,37.75
2023-03-17T01:12:55.743Z,37.63
2023-03-17T01:15:23.658Z,38.50
2023-03-17T01:17:51.617Z,37.88
2023-03-17T01:20:21.497Z,38.12
2023-03-17T01:22:49.611Z,38.47
2023-03-17T01:25:17.702Z,38.46
2023-03-17T01:27:46.435Z,36.26
2023-03-17T01:30:23.143Z,37.26
2023-03-17T01:32:51.009Z,36.81
2023-03-17T01:35:19.482Z,36.62
2023-03-17T01:37:47.268Z,38.46
2023-03-17T01:40:15.933Z,38.16
2023-03-17T01:42:43.658Z,38.97
2023-03-17T01:45:27.861Z,38.42
2023-03-17T01:47:57.347Z,39.14
2023-03-17T01:50:25.590Z,39.59
2023-03-17T01:52:53.727Z,40.31
2023-03-17T01:55:21.319Z,38.99
2023-03-17T01:57:53.262Z,40.83
2023-03-17T02:00:21.659Z,39.64
2023-03-17T02:02:50.772Z,38.75
2023-03-17T02:05:21.632Z,40.71
2023-03-17T02:07:49.444Z,38.48
2023-03-17T02:10:19.196Z,39.19
2023-03-17T02:12:47.211Z,38.08
2023-03-17T02:15:15.363Z,38.78
2023-03-17T02:17:43.015Z,38.50
2023-03-17T02:20:14.627Z,39.08
2023-03-17T02:22:43.705Z,39.32
2023-03-17T02:25:11.346Z,39.84
2023-03-17T02:27:39.467Z,39.70
2023-03-17T02:30:07.969Z,39.72
2023-03-17T02:32:36.177Z,38.66
2023-03-17T02:35:04.014Z,38.50
2023-03-17T02:37:31.681Z,39.29
2023-03-17T02:40:02.610Z,38.83
2023-03-17T02:42:30.591Z,37.99
2023-03-17T02:44:59.588Z,39.73
2023-03-17T02:47:27.626Z,38.75
2023-03-17T02:49:55.234Z,37.93
2023-03-17T02:52:22.839Z,39.22
2023-03-17T02:54:50.709Z,40.03
2023-03-17T02:57:19.759Z,39.37
2023-03-17T02:59:47.405Z,39.12
2023-03-17T03:02:15.375Z,39.80
2023-03-17T03:04:43.496Z,39.02
2023-03-17T03:07:11.497Z,38.27
2023-03-17T03:09:39.095Z,37.49
2023-03-17T03:12:09.824Z,40.61
2023-03-17T03:14:39.798Z,39.18
2023-03-17T03:17:07.448Z,38.90
2023-03-17T03:19:35.092Z,39.39
2023-03-17T03:22:02.725Z,37.89
2023-03-17T03:24:30.565Z,37.99
2023-03-17T03:26:58.241Z,38.38
2023-03-17T03:29:25.895Z,37.94
2023-03-17T03:31:54.960Z,38.37
2023-03-17T03:34:22.583Z,37.73
2023-03-17T03:36:50.345Z,38.02
2023-03-17T03:39:17.976Z,38.71
2023-03-17T03:41:45.704Z,38.59
2023-03-17T03:44:13.374Z,38.28
2023-03-17T03:46:41.050Z,37.84
2023-03-17T03:49:10.180Z,38.12
2023-03-17T03:51:37.795Z,38.86
2023-03-17T03:54:05.601Z,37.98
2023-03-17T03:56:33.448Z,38.84
2023-03-17T03:59:01.165Z,38.50
2023-03-17T04:01:28.818Z,39.60
2023-03-17T04:03:56.402Z,37.62
2023-03-17T04:06:25.423Z,37.63
2023-03-17T04:08:53.053Z,38.47
2023-03-17T04:11:22.221Z,38.09
2023-03-17T04:13:49.840Z,38.12
2023-03-17T04:16:17.605Z,39.27
2023-03-17T04:18:45.940Z,37.41
2023-03-17T04:21:13.705Z,37.31
2023-03-17T04:23:42.741Z,38.44
2023-03-17T04:26:10.674Z,38.34
2023-03-17T04:28:38.352Z,38.12
2023-03-17T04:31:06.341Z,38.83
2023-03-17T04:33:34.141Z,37.99
2023-03-17T04:36:03.975Z,39.55
2023-03-17T04:38:31.604Z,38.40
2023-03-17T04:41:00.726Z,38.70
2023-03-17T04:43:28.343Z,38.17
2023-03-17T04:45:56.152Z,41.95
2023-03-17T04:48:23.812Z,37.00
2023-03-17T04:50:51.463Z,37.63
2023-03-17T04:53:19.154Z,38.19
2023-03-17T04:55:47.061Z,37.86
2023-03-17T04:58:29.812Z,38.90
2023-03-17T05:00:58.295Z,39.09
2023-03-17T05:03:27.839Z,38.61
2023-03-17T05:05:55.766Z,38.71
2023-03-17T05:08:23.396Z,38.63
2023-03-17T05:10:51.152Z,44.13
2023-03-17T05:13:20.158Z,38.46
2023-03-17T05:15:47.840Z,34.52
2023-03-17T05:18:15.614Z,36.23
2023-03-17T05:20:43.215Z,36.08
2023-03-17T05:23:10.886Z,36.73
2023-03-17T05:25:38.608Z,37.00
2023-03-17T05:28:07.012Z,38.48
2023-03-17T05:30:36.587Z,38.48
2023-03-17T05:33:04.418Z,35.58
2023-03-17T05:35:32.088Z,37.24
2023-03-17T05:37:59.759Z,37.97
2023-03-17T05:40:27.379Z,37.64
2023-03-17T05:42:55.028Z,38.91
2023-03-17T05:45:22.772Z,37.27
2023-03-17T05:47:51.773Z,36.40
2023-03-17T05:50:19.566Z,36.68
2023-03-17T05:52:47.747Z,36.43
2023-03-17T05:55:15.985Z,36.88
2023-03-17T05:57:43.619Z,36.08
2023-03-17T06:00:12.799Z,36.63
2023-03-17T06:02:40.638Z,36.47
2023-03-17T06:05:10.081Z,35.93
2023-03-17T06:07:50.862Z,37.46
2023-03-17T06:10:19.691Z,36.66
2023-03-17T06:12:47.319Z,37.40
2023-03-17T06:15:16.550Z,36.46
2023-03-17T06:17:44.456Z,37.56
2023-03-17T06:20:14.239Z,36.61
2023-03-17T06:23:00.484Z,38.12
2023-03-17T06:25:30.542Z,38.32
2023-03-17T06:27:58.309Z,35.31
2023-03-17T06:30:25.918Z,36.78
2023-03-17T06:32:53.592Z,35.68
2023-03-17T06:35:23.319Z,36.73
2023-03-17T06:37:50.961Z,37.60
2023-03-17T06:40:18.626Z,35.39
2023-03-17T06:42:46.698Z,37.07
2023-03-17T06:45:15.168Z,37.73
2023-03-17T06:47:43.559Z,36.81
2023-03-17T06:50:12.256Z,36.53
2023-03-17T06:52:41.677Z,34.79
2023-03-17T06:55:09.643Z,37.38
2023-03-17T06:57:37.489Z,37.88
2023-03-17T07:00:06.284Z,36.75
2023-03-17T07:02:34.509Z,36.05
2023-03-17T07:05:03.755Z,36.63
2023-03-17T07:07:31.571Z,34.79
2023-03-17T07:10:00.716Z,37.76
2023-03-17T07:12:28.848Z,37.57
2023-03-17T07:14:56.467Z,37.06
2023-03-17T07:17:24.159Z,37.58
2023-03-17T07:19:52.353Z,37.31
2023-03-17T07:22:20.028Z,37.77
2023-03-17T07:24:49.063Z,36.30
2023-03-17T07:27:18.828Z,35.69
2023-03-17T07:29:47.450Z,33.87
2023-03-17T07:32:15.412Z,35.16
2023-03-17T07:34:43.292Z,34.16
2023-03-17T07:37:12.164Z,35.81
2023-03-17T07:39:40.213Z,35.92
2023-03-17T07:42:08.186Z,34.93
2023-03-17T07:44:39.178Z,35.42
2023-03-17T07:47:07.046Z,35.40
2023-03-17T07:49:41.671Z,34.90
2023-03-17T07:52:10.455Z,36.02
2023-03-17T07:54:42.283Z,34.83
2023-03-17T07:57:10.551Z,34.92
2023-03-17T07:59:39.932Z,35.44
2023-03-17T08:02:07.678Z,35.11
2023-03-17T08:04:35.548Z,33.50
2023-03-17T08:07:03.186Z,34.39
2023-03-17T08:09:30.813Z,35.17
2023-03-17T08:11:58.414Z,33.39
2023-03-17T08:14:26.562Z,32.71
2023-03-17T08:16:55.719Z,32.29
2023-03-17T08:19:24.235Z,33.47
2023-03-17T08:21:51.988Z,33.44
2023-03-17T08:24:19.671Z,33.15
2023-03-17T08:26:48.872Z,32.05
2023-03-17T08:29:16.605Z,31.61
2023-03-17T08:31:46.561Z,33.40
2023-03-17T08:34:16.523Z,32.74
2023-03-17T08:36:44.148Z,32.22
2023-03-17T08:39:11.798Z,30.70
2023-03-17T08:41:39.653Z,28.27
2023-03-17T08:44:08.750Z,30.18
2023-03-17T08:46:36.580Z,30.32
2023-03-17T08:49:04.303Z,30.28
2023-03-17T08:51:34.315Z,31.42
2023-03-17T08:54:02.000Z,31.92
2023-03-17T08:56:29.642Z,31.92
2023-03-17T08:58:57.303Z,30.83
2023-03-17T09:01:25.519Z,31.86
2023-03-17T09:03:54.626Z,31.78
2023-03-17T09:06:22.386Z,32.06
2023-03-17T09:08:55.349Z,31.54
2023-03-17T09:11:24.163Z,30.17
2023-03-17T09:13:51.903Z,30.06
2023-03-17T09:16:19.719Z,30.96
2023-03-17T09:18:47.705Z,31.99
2023-03-17T09:21:16.118Z,31.17
2023-03-17T09:23:43.796Z,31.85
2023-03-17T09:26:12.957Z,30.52
2023-03-17T09:28:40.706Z,28.45
2023-03-17T09:31:11.290Z,28.63
2023-03-17T09:33:39.201Z,29.07
2023-03-17T09:36:07.511Z,30.74
2023-03-17T09:38:35.659Z,29.74
2023-03-17T09:41:06.393Z,28.00
2023-03-17T09:43:37.090Z,29.09
2023-03-17T09:46:09.429Z,29.21
2023-03-17T09:48:46.445Z,27.38
2023-03-17T09:51:14.291Z,27.93
2023-03-17T09:53:43.753Z,28.27
2023-03-17T09:56:12.651Z,27.84
2023-03-17T09:58:41.890Z,28.36
2023-03-17T10:01:10.341Z,28.23
2023-03-17T10:03:39.188Z,28.29
2023-03-17T10:06:16.220Z,28.66
2023-03-17T10:08:46.006Z,28.80
2023-03-17T10:11:15.214Z,28.03
2023-03-17T10:13:50.315Z,28.67
2023-03-17T10:16:19.092Z,28.45
2023-03-17T10:18:48.160Z,27.94
2023-03-17T10:21:17.261Z,26.72
2023-03-17T10:23:45.047Z,28.40
2023-03-17T10:26:15.679Z,26.72
2023-03-17T10:28:43.395Z,28.63
2023-03-17T10:31:17.372Z,28.35
2023-03-17T10:33:45.285Z,28.33
2023-03-17T10:36:15.892Z,27.00
2023-03-17T10:38:47.862Z,27.32
2023-03-17T10:41:16.634Z,27.62
2023-03-17T10:43:45.782Z,28.00
2023-03-17T10:46:19.688Z,27.92
2023-03-17T10:48:50.693Z,26.56
2023-03-17T10:51:20.425Z,27.42
2023-03-17T10:53:48.081Z,27.93
2023-03-17T10:56:20.376Z,28.13
2023-03-17T10:58:48.887Z,27.71
2023-03-17T11:01:17.809Z,27.22
2023-03-17T11:03:47.004Z,26.81
2023-03-17T11:06:15.885Z,26.29
2023-03-17T11:08:44.104Z,26.52
2023-03-17T11:11:23.023Z,26.90
2023-03-17T11:13:50.726Z,26.73
2023-03-17T11:16:19.824Z,27.89
2023-03-17T11:18:49.243Z,26.79
2023-03-17T11:21:17.470Z,26.13
2023-03-17T11:23:52.185Z,26.99
2023-03-17T11:26:33.188Z,28.26
2023-03-17T11:29:05.944Z,27.45
2023-03-17T11:31:34.147Z,26.87
2023-03-17T11:34:05.253Z,26.14
2023-03-17T11:36:37.357Z,25.91
2023-03-17T11:39:08.867Z,26.17
2023-03-17T11:41:41.367Z,25.46
2023-03-17T11:44:13.464Z,26.63
2023-03-17T11:46:42.979Z,26.94
2023-03-17T11:49:14.689Z,26.64
2023-03-17T11:51:46.639Z,26.41
2023-03-17T11:54:15.850Z,26.08
2023-03-17T11:56:44.095Z,25.66
2023-03-17T11:59:14.001Z,26.37
2023-03-17T12:01:45.716Z,26.58
2023-03-17T12:04:18.437Z,26.81
2023-03-17T12:06:47.431Z,25.41
2023-03-17T12:09:18.134Z,25.00
2023-03-17T12:11:45.754Z,25.45
2023-03-17T12:14:20.077Z,26.71
2023-03-17T12:16:48.610Z,26.01
2023-03-17T12:19:19.266Z,24.99
2023-03-17T12:21:50.186Z,26.92
2023-03-17T12:24:18.698Z,25.21
2023-03-17T12:26:49.168Z,25.96
2023-03-17T12:29:18.165Z,24.51
2023-03-17T12:31:46.669Z,24.53
2023-03-17T12:34:15.852Z,25.75
2023-03-17T12:36:45.022Z,26.42
2023-03-17T12:39:13.487Z,27.17
2023-03-17T12:41:44.257Z,26.27
2023-03-17T12:44:15.778Z,26.05
2023-03-17T12:47:01.295Z,26.49
2023-03-17T12:49:42.107Z,25.48
2023-03-17T12:52:23.485Z,25.29
2023-03-17T12:54:51.922Z,26.78
2023-03-17T12:57:19.910Z,25.58
2023-03-17T12:59:48.022Z,27.05
2023-03-17T13:02:17.635Z,26.83
2023-03-17T13:04:49.131Z,26.70
2023-03-17T13:07:17.271Z,26.15
2023-03-17T13:09:50.654Z,26.07
2023-03-17T13:12:52.488Z,26.30
2023-03-17T13:15:38.553Z,26.48
2023-03-17T13:18:23.409Z,26.33
2023-03-17T13:20:53.256Z,25.77
2023-03-17T13:23:22.538Z,25.84
2023-03-17T13:25:53.458Z,26.38
2023-03-17T13:28:25.735Z,26.45
2023-03-17T13:30:58.251Z,25.90
2023-03-17T13:33:29.201Z,26.00
2023-03-17T13:36:03.054Z,27.44
2023-03-17T13:38:39.766Z,27.05
2023-03-17T13:41:15.392Z,26.77
2023-03-17T13:43:47.381Z,26.33
2023-03-17T13:46:22.466Z,26.14
2023-03-17T13:48:50.159Z,25.93
2023-03-17T13:51:20.563Z,26.42
2023-03-17T13:53:49.084Z,27.08
2023-03-17T13:56:19.616Z,27.08
2023-03-17T13:58:54.831Z,25.29
2023-03-17T14:01:23.723Z,24.03
2023-03-17T14:03:53.829Z,24.53
2023-03-17T14:06:22.244Z,25.12
2023-03-17T14:08:50.317Z,25.13
2023-03-17T14:11:22.400Z,23.69
2023-03-17T14:13:50.891Z,24.47
2023-03-17T14:16:20.124Z,25.28
2023-03-17T14:18:49.639Z,24.55
2023-03-17T14:21:21.972Z,26.20
2023-03-17T14:23:53.798Z,25.53
2023-03-17T14:26:22.809Z,24.19
2023-03-17T14:28:50.427Z,23.92
2023-03-17T14:31:21.067Z,22.91
2023-03-17T14:33:49.337Z,23.94
2023-03-17T14:36:17.521Z,23.49
2023-03-17T14:38:47.441Z,26.14
2023-03-17T14:41:18.925Z,24.31
2023-03-17T14:43:48.203Z,23.56
2023-03-17T14:46:16.379Z,23.64
2023-03-17T14:48:44.552Z,25.04
2023-03-17T14:51:25.130Z,26.12
2023-03-17T14:53:53.413Z,26.85
2023-03-17T14:56:22.964Z,25.07
2023-03-17T14:58:52.739Z,26.20
2023-03-17T15:01:21.690Z,26.15
2023-03-17T15:03:54.617Z,26.42
2023-03-17T15:06:23.315Z,25.71
2023-03-17T15:08:51.217Z,25.20
2023-03-17T15:11:20.370Z,25.58
2023-03-17T15:13:48.112Z,26.05
2023-03-17T15:16:18.790Z,25.22
2023-03-17T15:18:46.751Z,25.58
2023-03-17T15:21:24.569Z,25.68
2023-03-17T15:23:52.200Z,26.95
2023-03-17T15:26:23.460Z,25.64
2023-03-17T15:28:51.078Z,27.88
2023-03-17T15:31:30.569Z,26.12
2023-03-17T15:33:58.645Z,26.79
2023-03-17T15:36:32.725Z,27.20
2023-03-17T15:39:00.766Z,28.44
2023-03-17T15:41:28.540Z,26.62
2023-03-17T15:43:56.756Z,26.28
2023-03-17T15:46:30.193Z,28.69
2023-03-17T15:49:00.454Z,26.08
2023-03-17T15:51:28.120Z,27.06
2023-03-17T15:53:55.806Z,26.52
2023-03-17T15:56:23.417Z,25.51
2023-03-17T15:58:52.363Z,24.67
2023-03-17T16:01:20.554Z,25.95
2023-03-17T16:03:49.683Z,24.98
2023-03-17T16:06:18.533Z,27.79
2023-03-17T16:08:46.464Z,25.67
2023-03-17T16:11:18.611Z,26.21
2023-03-17T16:13:46.815Z,26.89
2023-03-17T16:16:19.488Z,25.78
2023-03-17T16:18:47.571Z,26.42
2023-03-17T16:21:16.753Z,25.68
2023-03-17T16:23:44.484Z,25.29
2023-03-17T16:26:16.122Z,26.08
2023-03-17T16:28:45.341Z,25.92
2023-03-17T16:31:20.265Z,26.57
2023-03-17T16:33:48.175Z,26.21
2023-03-17T16:36:18.068Z,25.33
2023-03-17T16:38:50.603Z,27.99
2023-03-17T16:41:20.447Z,26.86
2023-03-17T16:43:51.064Z,26.26
2023-03-17T16:46:19.165Z,27.64
2023-03-17T16:48:48.246Z,26.39
2023-03-17T16:51:17.460Z,26.99
2023-03-17T16:53:45.406Z,27.01
2023-03-17T16:56:15.450Z,27.56
2023-03-17T16:58:43.177Z,26.34
2023-03-17T17:01:12.679Z,26.38
2023-03-17T17:03:40.489Z,27.80
2023-03-17T17:06:08.821Z,28.84
2023-03-17T17:08:37.854Z,26.92
2023-03-17T17:11:06.483Z,27.73
2023-03-17T17:13:34.114Z,27.68
2023-03-17T17:16:01.782Z,27.56
2023-03-17T17:18:29.427Z,28.62
2023-03-17T17:20:57.755Z,26.79
2023-03-17T17:23:25.869Z,27.45
2023-03-17T17:25:54.987Z,27.33
2023-03-17T17:28:23.467Z,27.71
2023-03-17T17:30:51.339Z,27.43
2023-03-17T17:33:19.172Z,27.61
2023-03-17T17:35:47.101Z,28.21
2023-03-17T17:38:17.489Z,26.59
2023-03-17T17:40:45.119Z,27.15
2023-03-17T17:43:14.211Z,27.84
2023-03-17T17:45:42.117Z,27.42
2023-03-17T17:48:10.460Z,27.03
2023-03-17T17:50:38.071Z,26.73
2023-03-17T17:53:08.641Z,28.26
2023-03-17T17:55:36.326Z,28.12
2023-03-17T17:58:03.944Z,26.02
2023-03-17T18:00:33.370Z,27.06
2023-03-17T18:03:01.109Z,27.93
2023-03-17T18:05:28.788Z,27.73
2023-03-17T18:07:56.408Z,27.09
2023-03-17T18:10:25.748Z,27.11
2023-03-17T18:12:53.440Z,27.58
2023-03-17T18:15:21.863Z,28.24
2023-03-17T18:17:51.511Z,27.28
2023-03-17T18:20:20.131Z,27.80
2023-03-17T18:22:47.847Z,27.58
2023-03-17T18:25:15.843Z,27.17
2023-03-17T18:27:43.701Z,27.74
2023-03-17T18:30:13.190Z,28.05
2023-03-17T18:32:41.051Z,27.48
2023-03-17T18:35:11.697Z,27.54
2023-03-17T18:37:39.324Z,28.20
2023-03-17T18:40:17.258Z,28.52
2023-03-17T18:42:46.142Z,28.33
2023-03-17T18:45:14.005Z,28.68
2023-03-17T18:47:41.973Z,28.47
2023-03-17T18:50:12.303Z,28.90
2023-03-17T18:52:40.970Z,28.38
2023-03-17T18:55:09.072Z,28.42
2023-03-17T18:57:37.076Z,29.25
2023-03-17T19:00:05.145Z,28.92
2023-03-17T19:02:33.272Z,27.40
2023-03-17T19:05:00.977Z,29.45
2023-03-17T19:07:30.047Z,29.15
2023-03-17T19:09:57.690Z,29.25
2023-03-17T19:12:25.349Z,29.96
2023-03-17T19:14:53.040Z,29.10
2023-03-17T19:17:20.677Z,28.90
2023-03-17T19:19:50.244Z,30.47
2023-03-17T19:22:17.953Z,30.09
2023-03-17T19:24:48.054Z,30.82
2023-03-17T19:27:15.896Z,31.83
2023-03-17T19:29:43.543Z,29.96
2023-03-17T19:32:11.165Z,29.87
2023-03-17T19:34:38.889Z,30.71
2023-03-17T19:37:06.640Z,30.58
2023-03-17T19:39:34.537Z,31.51
2023-03-17T19:42:03.541Z,31.23
2023-03-17T19:44:31.161Z,31.07
2023-03-17T19:47:01.577Z,31.25
2023-03-17T19:49:29.327Z,30.67
2023-03-17T19:51:56.893Z,31.39
2023-03-17T19:54:24.557Z,31.59
2023-03-17T19:56:52.569Z,30.53
2023-03-17T19:59:21.560Z,31.12
2023-03-17T20:01:49.586Z,28.12
2023-03-17T20:04:20.916Z,28.57
2023-03-17T20:06:48.733Z,30.93
2023-03-17T20:09:16.587Z,29.76
2023-03-17T20:11:44.219Z,29.85
2023-03-17T20:14:11.864Z,29.72
2023-03-17T20:16:41.796Z,32.57
2023-03-17T20:19:09.698Z,27.75
2023-03-17T20:21:37.674Z,27.95
2023-03-17T20:24:05.594Z,28.50
2023-03-17T20:26:33.909Z,27.92
2023-03-17T20:29:01.744Z,26.14
2023-03-17T20:31:29.738Z,28.33
2023-03-17T20:33:58.868Z,28.47
2023-03-17T20:36:26.985Z,29.66
2023-03-17T20:38:54.639Z,29.05
2023-03-17T20:41:22.383Z,29.30
2023-03-17T20:43:50.060Z,28.63
2023-03-17T20:46:18.298Z,29.57
2023-03-17T20:48:48.083Z,30.29
2023-03-17T20:51:17.331Z,30.52
2023-03-17T20:53:46.223Z,30.48
2023-03-17T20:56:15.298Z,31.13
2023-03-17T20:58:46.928Z,30.02
2023-03-17T21:01:14.681Z,29.57
2023-03-17T21:03:42.546Z,30.14
2023-03-17T21:06:10.613Z,29.79
2023-03-17T21:08:39.684Z,29.94
2023-03-17T21:11:12.052Z,29.87
2023-03-17T21:13:40.055Z,30.29
2023-03-17T21:16:08.476Z,30.04
2023-03-17T21:18:36.092Z,30.34
2023-03-17T21:21:03.758Z,31.33
2023-03-17T21:23:31.848Z,30.57
2023-03-17T21:26:00.866Z,30.26
2023-03-17T21:28:28.482Z,30.43
2023-03-17T21:30:56.169Z,32.09
2023-03-17T21:33:23.831Z,31.10
2023-03-17T21:35:52.256Z,31.27
2023-03-17T21:38:19.960Z,30.73
2023-03-17T21:40:48.607Z,30.07
2023-03-17T21:43:17.543Z,30.63
2023-03-17T21:45:45.236Z,30.70
2023-03-17T21:48:12.932Z,31.83
2023-03-17T21:50:40.536Z,31.87
2023-03-17T21:53:09.159Z,31.65
2023-03-17T21:55:36.921Z,30.77
2023-03-17T21:58:04.542Z,31.86
2023-03-17T22:00:44.651Z,32.61
2023-03-17T22:03:13.474Z,31.79
2023-03-17T22:05:41.265Z,32.57
2023-03-17T22:08:09.304Z,32.79
2023-03-17T22:10:36.961Z,32.49
2023-03-17T22:13:04.561Z,32.07
2023-03-17T22:15:33.586Z,32.43
2023-03-17T22:18:01.271Z,31.92
2023-03-17T22:20:30.504Z,32.41
2023-03-17T22:22:58.288Z,33.05
2023-03-17T22:25:25.914Z,33.10
2023-03-17T22:27:53.636Z,32.13
2023-03-17T22:30:21.467Z,32.15
2023-03-17T22:32:51.004Z,32.47
2023-03-17T22:35:19.567Z,32.73
2023-03-17T22:37:47.376Z,32.75
2023-03-17T22:40:15.417Z,33.59
2023-03-17T22:42:43.091Z,35.64
2023-03-17T22:45:13.081Z,31.88
2023-03-17T22:47:41.026Z,31.85
2023-03-17T22:50:10.782Z,31.77
2023-03-17T22:52:38.707Z,31.67
2023-03-17T22:55:07.594Z,32.41
2023-03-17T22:57:35.275Z,32.62
2023-03-17T23:00:05.417Z,32.57
2023-03-17T23:02:33.074Z,32.34
2023-03-17T23:05:00.721Z,32.99
2023-03-17T23:07:31.761Z,32.91
2023-03-17T23:09:59.438Z,32.54
2023-03-17T23:12:28.226Z,32.38
2023-03-17T23:14:55.938Z,32.45
2023-03-17T23:17:23.592Z,32.58
2023-03-17T23:19:51.270Z,33.04
2023-03-17T23:22:18.945Z,32.21
2023-03-17T23:24:47.922Z,32.75
2023-03-17T23:27:15.764Z,32.86
2023-03-17T23:29:43.353Z,33.21
2023-03-17T23:32:12.102Z,33.02
2023-03-17T23:34:40.419Z,32.54
2023-03-17T23:37:08.523Z,32.29
2023-03-17T23:39:36.165Z,32.62
2023-03-17T23:42:05.447Z,32.72
2023-03-17T23:44:33.018Z,32.95
2023-03-17T23:47:00.642Z,32.17
2023-03-17T23:49:28.442Z,33.95
2023-03-17T23:51:56.146Z,32.67
2023-03-17T23:54:24.474Z,33.18
2023-03-17T23:56:52.660Z,33.57
2023-03-17T23:59:21.843Z,33.78
